sensor_id;sensor_type;location;lat;lon;timestamp;pressure;altitude;pressure_sealevel;temperature;humidity
65546;BME280;52177;55.968;37.498;2023-05-19T00:00:21;100351.09;;;15.34;67.53
65546;BME280;52177;55.968;37.498;2023-05-19T00:00:52;100349.63;;;15.31;67.60
65546;BME280;52177;55.968;37.498;2023-05-19T00:01:22;100350.47;;;15.32;67.81
65546;BME280;52177;55.968;37.498;2023-05-19T00:01:54;100352.75;;;15.35;67.56
65546;BME280;52177;55.968;37.498;2023-05-19T00:02:24;100354.44;;;15.36;67.68
65546;BME280;52177;55.968;37.498;2023-05-19T00:02:56;100360.00;;;15.34;67.62
65546;BME280;52177;55.968;37.498;2023-05-19T00:03:26;100357.06;;;15.29;68.05
65546;BME280;52177;55.968;37.498;2023-05-19T00:03:58;100362.44;;;15.29;68.25
65546;BME280;52177;55.968;37.498;2023-05-19T00:04:31;100364.25;;;15.29;68.18
65546;BME280;52177;55.968;37.498;2023-05-19T00:05:02;100362.59;;;15.28;68.31
65546;BME280;52177;55.968;37.498;2023-05-19T00:05:35;100364.84;;;15.24;68.51
65546;BME280;52177;55.968;37.498;2023-05-19T00:06:06;100361.72;;;15.20;68.65
65546;BME280;52177;55.968;37.498;2023-05-19T00:06:40;100368.13;;;15.19;68.91
65546;BME280;52177;55.968;37.498;2023-05-19T00:07:12;100364.13;;;15.15;68.96
65546;BME280;52177;55.968;37.498;2023-05-19T00:07:47;100366.19;;;15.13;69.01
65546;BME280;52177;55.968;37.498;2023-05-19T00:08:22;100362.41;;;15.08;69.42
65546;BME280;52177;55.968;37.498;2023-05-19T00:09:01;100370.00;;;15.04;69.70
65546;BME280;52177;55.968;37.498;2023-05-19T00:09:32;100367.88;;;14.99;69.69
65546;BME280;52177;55.968;37.498;2023-05-19T00:10:03;100364.72;;;14.96;69.92
65546;BME280;52177;55.968;37.498;2023-05-19T00:10:34;100374.63;;;14.95;70.22
65546;BME280;52177;55.968;37.498;2023-05-19T00:11:05;100372.53;;;14.91;70.22
65546;BME280;52177;55.968;37.498;2023-05-19T00:11:36;100368.19;;;14.90;70.39
65546;BME280;52177;55.968;37.498;2023-05-19T00:12:07;100370.88;;;14.90;70.43
65546;BME280;52177;55.968;37.498;2023-05-19T00:12:40;100378.09;;;14.89;70.41
65546;BME280;52177;55.968;37.498;2023-05-19T00:13:12;100379.09;;;14.88;70.59
65546;BME280;52177;55.968;37.498;2023-05-19T00:13:43;100378.28;;;14.88;70.40
65546;BME280;52177;55.968;37.498;2023-05-19T00:14:17;100375.13;;;14.84;70.55
65546;BME280;52177;55.968;37.498;2023-05-19T00:14:48;100367.28;;;14.83;70.66
65546;BME280;52177;55.968;37.498;2023-05-19T00:15:18;100371.81;;;14.82;70.83
65546;BME280;52177;55.968;37.498;2023-05-19T00:15:49;100379.00;;;14.82;71.04
65546;BME280;52177;55.968;37.498;2023-05-19T00:16:21;100382.09;;;14.78;71.10
65546;BME280;52177;55.968;37.498;2023-05-19T00:16:52;100369.41;;;14.72;71.25
65546;BME280;52177;55.968;37.498;2023-05-19T00:17:22;100373.75;;;14.73;71.25
65546;BME280;52177;55.968;37.498;2023-05-19T00:17:53;100382.38;;;14.69;71.23
65546;BME280;52177;55.968;37.498;2023-05-19T00:18:24;100382.56;;;14.67;71.28
65546;BME280;52177;55.968;37.498;2023-05-19T00:18:59;100380.50;;;14.69;71.38
65546;BME280;52177;55.968;37.498;2023-05-19T00:19:30;100383.03;;;14.71;71.15
65546;BME280;52177;55.968;37.498;2023-05-19T00:20:01;100386.53;;;14.71;70.94
65546;BME280;52177;55.968;37.498;2023-05-19T00:20:37;100385.88;;;14.69;71.06
65546;BME280;52177;55.968;37.498;2023-05-19T00:21:08;100382.56;;;14.67;71.20
65546;BME280;52177;55.968;37.498;2023-05-19T00:21:38;100391.44;;;14.68;71.27
65546;BME280;52177;55.968;37.498;2023-05-19T00:22:09;100386.44;;;14.65;71.22
65546;BME280;52177;55.968;37.498;2023-05-19T00:22:40;100384.78;;;14.64;71.42
65546;BME280;52177;55.968;37.498;2023-05-19T00:23:13;100389.13;;;14.65;71.23
65546;BME280;52177;55.968;37.498;2023-05-19T00:23:43;100393.66;;;14.64;71.39
65546;BME280;52177;55.968;37.498;2023-05-19T00:24:13;100391.97;;;14.63;71.37
65546;BME280;52177;55.968;37.498;2023-05-19T00:24:44;100391.97;;;14.63;71.40
65546;BME280;52177;55.968;37.498;2023-05-19T00:25:14;100393.66;;;14.64;71.44
65546;BME280;52177;55.968;37.498;2023-05-19T00:25:44;100390.97;;;14.64;71.50
65546;BME280;52177;55.968;37.498;2023-05-19T00:26:15;100395.97;;;14.67;71.26
65546;BME280;52177;55.968;37.498;2023-05-19T00:26:45;100390.81;;;14.66;71.24
65546;BME280;52177;55.968;37.498;2023-05-19T00:27:15;100387.91;;;14.67;71.28
65546;BME280;52177;55.968;37.498;2023-05-19T00:27:46;100386.25;;;14.66;70.87
65546;BME280;52177;55.968;37.498;2023-05-19T00:28:16;100389.59;;;14.68;70.59
65546;BME280;52177;55.968;37.498;2023-05-19T00:28:48;100383.94;;;14.63;70.84
65546;BME280;52177;55.968;37.498;2023-05-19T00:29:18;100396.25;;;14.57;70.81
65546;BME280;52177;55.968;37.498;2023-05-19T00:29:48;100391.59;;;14.51;71.09
65546;BME280;52177;55.968;37.498;2023-05-19T00:30:19;100390.97;;;14.49;71.40
65546;BME280;52177;55.968;37.498;2023-05-19T00:30:51;100397.16;;;14.50;71.38
65546;BME280;52177;55.968;37.498;2023-05-19T00:31:22;100389.66;;;14.45;71.79
65546;BME280;52177;55.968;37.498;2023-05-19T00:31:52;100384.47;;;14.44;71.77
65546;BME280;52177;55.968;37.498;2023-05-19T00:32:23;100396.22;;;14.43;71.78
65546;BME280;52177;55.968;37.498;2023-05-19T00:32:54;100392.34;;;14.45;71.61
65546;BME280;52177;55.968;37.498;2023-05-19T00:33:24;100385.13;;;14.46;71.42
65546;BME280;52177;55.968;37.498;2023-05-19T00:33:54;100394.81;;;14.47;71.39
65546;BME280;52177;55.968;37.498;2023-05-19T00:34:25;100391.03;;;14.41;71.50
65546;BME280;52177;55.968;37.498;2023-05-19T00:34:55;100387.53;;;14.41;71.37
65546;BME280;52177;55.968;37.498;2023-05-19T00:35:25;100390.38;;;14.39;71.54
65546;BME280;52177;55.968;37.498;2023-05-19T00:35:56;100391.59;;;14.36;71.70
65546;BME280;52177;55.968;37.498;2023-05-19T00:36:26;100391.22;;;14.40;71.48
65546;BME280;52177;55.968;37.498;2023-05-19T00:36:56;100387.91;;;14.38;71.62
65546;BME280;52177;55.968;37.498;2023-05-19T00:37:27;100387.44;;;14.34;71.77
65546;BME280;52177;55.968;37.498;2023-05-19T00:37:57;100389.47;;;14.32;71.86
65546;BME280;52177;55.968;37.498;2023-05-19T00:38:29;100394.00;;;14.31;71.94
65546;BME280;52177;55.968;37.498;2023-05-19T00:39:00;100396.69;;;14.31;72.13
65546;BME280;52177;55.968;37.498;2023-05-19T00:39:30;100399.53;;;14.30;72.21
65546;BME280;52177;55.968;37.498;2023-05-19T00:40:00;100388.81;;;14.30;72.38
65546;BME280;52177;55.968;37.498;2023-05-19T00:40:34;100390.50;;;14.31;72.54
65546;BME280;52177;55.968;37.498;2023-05-19T00:41:05;100396.69;;;14.31;72.66
65546;BME280;52177;55.968;37.498;2023-05-19T00:41:36;100390.13;;;14.34;72.39
65546;BME280;52177;55.968;37.498;2023-05-19T00:42:06;100388.63;;;14.31;72.52
65546;BME280;52177;55.968;37.498;2023-05-19T00:42:37;100398.97;;;14.34;72.40
65546;BME280;52177;55.968;37.498;2023-05-19T00:43:07;100396.50;;;14.33;72.33
65546;BME280;52177;55.968;37.498;2023-05-19T00:43:38;100395.66;;;14.32;72.36
65546;BME280;52177;55.968;37.498;2023-05-19T00:44:08;100392.78;;;14.34;72.31
65546;BME280;52177;55.968;37.498;2023-05-19T00:44:39;100394.00;;;14.31;72.29
65546;BME280;52177;55.968;37.498;2023-05-19T00:45:10;100393.81;;;14.33;72.19
65546;BME280;52177;55.968;37.498;2023-05-19T00:45:40;100393.81;;;14.33;72.05
65546;BME280;52177;55.968;37.498;2023-05-19T00:46:11;100403.81;;;14.24;71.97
65546;BME280;52177;55.968;37.498;2023-05-19T00:46:41;100397.22;;;14.27;71.91
65546;BME280;52177;55.968;37.498;2023-05-19T00:47:11;100400.47;;;14.22;72.04
65546;BME280;52177;55.968;37.498;2023-05-19T00:47:42;100406.53;;;14.16;72.45
65546;BME280;52177;55.968;37.498;2023-05-19T00:48:12;100413.75;;;14.15;72.56
65546;BME280;52177;55.968;37.498;2023-05-19T00:48:43;100411.25;;;14.14;72.49
65546;BME280;52177;55.968;37.498;2023-05-19T00:49:14;100405.88;;;14.14;72.21
65546;BME280;52177;55.968;37.498;2023-05-19T00:49:44;100422.63;;;14.16;72.01
65546;BME280;52177;55.968;37.498;2023-05-19T00:50:15;100409.59;;;14.13;72.23
65546;BME280;52177;55.968;37.498;2023-05-19T00:50:45;100411.91;;;14.16;71.54
65546;BME280;52177;55.968;37.498;2023-05-19T00:51:16;100414.97;;;14.13;71.31
65546;BME280;52177;55.968;37.498;2023-05-19T00:51:47;100422.06;;;14.06;71.54
65546;BME280;52177;55.968;37.498;2023-05-19T00:52:18;100411.22;;;13.99;71.85
65546;BME280;52177;55.968;37.498;2023-05-19T00:52:49;100421.66;;;13.94;72.18
65546;BME280;52177;55.968;37.498;2023-05-19T00:53:20;100413.34;;;13.89;72.57
65546;BME280;52177;55.968;37.498;2023-05-19T00:53:52;100420.06;;;13.85;72.79
65546;BME280;52177;55.968;37.498;2023-05-19T00:54:22;100426.91;;;13.87;72.58
65546;BME280;52177;55.968;37.498;2023-05-19T00:54:54;100413.69;;;13.86;71.61
65546;BME280;52177;55.968;37.498;2023-05-19T00:55:29;100419.94;;;13.78;71.89
65546;BME280;52177;55.968;37.498;2023-05-19T00:56:01;100412.13;;;13.77;71.83
65546;BME280;52177;55.968;37.498;2023-05-19T00:56:32;100415.63;;;13.77;71.43
65546;BME280;52177;55.968;37.498;2023-05-19T00:57:03;100420.03;;;13.70;70.82
65546;BME280;52177;55.968;37.498;2023-05-19T00:57:33;100422.22;;;13.66;70.78
65546;BME280;52177;55.968;37.498;2023-05-19T00:58:04;100421.75;;;13.63;70.95
65546;BME280;52177;55.968;37.498;2023-05-19T00:58:35;100425.44;;;13.62;70.82
65546;BME280;52177;55.968;37.498;2023-05-19T00:59:06;100424.97;;;13.58;70.51
65546;BME280;52177;55.968;37.498;2023-05-19T00:59:37;100423.28;;;13.57;70.53
65546;BME280;52177;55.968;37.498;2023-05-19T01:00:08;100436.88;;;13.56;70.26
65546;BME280;52177;55.968;37.498;2023-05-19T01:00:40;100426.88;;;13.49;70.30
65546;BME280;52177;55.968;37.498;2023-05-19T01:01:11;100423.88;;;13.44;70.24
65546;BME280;52177;55.968;37.498;2023-05-19T01:01:47;100428.41;;;13.44;70.22
65546;BME280;52177;55.968;37.498;2023-05-19T01:02:18;100420.56;;;13.42;70.07
65546;BME280;52177;55.968;37.498;2023-05-19T01:02:48;100431.63;;;13.39;69.96
65546;BME280;52177;55.968;37.498;2023-05-19T01:03:23;100425.41;;;13.39;69.88
65546;BME280;52177;55.968;37.498;2023-05-19T01:03:54;100427.44;;;13.37;70.01
65546;BME280;52177;55.968;37.498;2023-05-19T01:04:27;100435.81;;;13.34;69.99
65546;BME280;52177;55.968;37.498;2023-05-19T01:04:59;100425.47;;;13.30;70.14
65546;BME280;52177;55.968;37.498;2023-05-19T01:05:29;100436.69;;;13.26;70.33
65546;BME280;52177;55.968;37.498;2023-05-19T01:06:02;100431.03;;;13.21;70.88
65546;BME280;52177;55.968;37.498;2023-05-19T01:06:36;100425.69;;;13.13;70.91
65546;BME280;52177;55.968;37.498;2023-05-19T01:07:10;100434.75;;;13.12;70.97
65546;BME280;52177;55.968;37.498;2023-05-19T01:07:42;100426.06;;;13.09;71.08
65546;BME280;52177;55.968;37.498;2023-05-19T01:08:12;100425.03;;;13.10;70.97
65546;BME280;52177;55.968;37.498;2023-05-19T01:08:43;100433.44;;;13.07;71.26
65546;BME280;52177;55.968;37.498;2023-05-19T01:09:13;100426.22;;;13.08;71.17
65546;BME280;52177;55.968;37.498;2023-05-19T01:09:45;100425.56;;;13.06;71.22
65546;BME280;52177;55.968;37.498;2023-05-19T01:10:16;100428.91;;;13.08;71.20
65546;BME280;52177;55.968;37.498;2023-05-19T01:10:46;100430.09;;;13.05;71.06
65546;BME280;52177;55.968;37.498;2023-05-19T01:11:16;100429.63;;;13.02;71.28
65546;BME280;52177;55.968;37.498;2023-05-19T01:11:50;100430.44;;;13.02;71.24
65546;BME280;52177;55.968;37.498;2023-05-19T01:12:20;100434.97;;;13.02;71.17
65546;BME280;52177;55.968;37.498;2023-05-19T01:12:50;100437.66;;;13.02;71.16
65546;BME280;52177;55.968;37.498;2023-05-19T01:13:21;100432.28;;;13.02;71.31
65546;BME280;52177;55.968;37.498;2023-05-19T01:13:51;100426.09;;;13.01;71.04
65546;BME280;52177;55.968;37.498;2023-05-19T01:14:22;100435.31;;;12.99;71.18
65546;BME280;52177;55.968;37.498;2023-05-19T01:14:52;100434.81;;;12.95;70.88
65546;BME280;52177;55.968;37.498;2023-05-19T01:15:24;100436.00;;;12.93;70.94
65546;BME280;52177;55.968;37.498;2023-05-19T01:16:11;100435.66;;;12.96;70.55
65546;BME280;52177;55.968;37.498;2023-05-19T01:17:07;100440.69;;;12.91;70.66
65546;BME280;52177;55.968;37.498;2023-05-19T01:18:04;100441.53;;;12.83;70.61
65546;BME280;52177;55.968;37.498;2023-05-19T01:20:42;100440.94;;;12.73;70.25
65546;BME280;52177;55.968;37.498;2023-05-19T01:21:47;100434.09;;;12.70;70.32
65546;BME280;52177;55.968;37.498;2023-05-19T01:23:33;100440.63;;;12.59;71.24
65546;BME280;52177;55.968;37.498;2023-05-19T01:30:47;100440.28;;;12.62;70.61
65546;BME280;52177;55.968;37.498;2023-05-19T01:31:22;100447.31;;;12.63;70.30
65546;BME280;52177;55.968;37.498;2023-05-19T01:31:58;100443.81;;;12.63;70.54
65546;BME280;52177;55.968;37.498;2023-05-19T01:32:29;100444.16;;;12.60;70.41
65546;BME280;52177;55.968;37.498;2023-05-19T01:33:02;100444.97;;;12.60;70.15
65546;BME280;52177;55.968;37.498;2023-05-19T01:33:33;100441.63;;;12.58;70.11
65546;BME280;52177;55.968;37.498;2023-05-19T01:34:05;100444.16;;;12.60;69.92
65546;BME280;52177;55.968;37.498;2023-05-19T01:34:38;100445.50;;;12.56;70.20
65546;BME280;52177;55.968;37.498;2023-05-19T01:35:11;100452.03;;;12.53;70.75
65546;BME280;52177;55.968;37.498;2023-05-19T01:35:44;100438.13;;;12.50;71.29
65546;BME280;52177;55.968;37.498;2023-05-19T01:36:15;100444.84;;;12.45;71.10
65546;BME280;52177;55.968;37.498;2023-05-19T01:36:47;100452.03;;;12.45;71.30
65546;BME280;52177;55.968;37.498;2023-05-19T01:37:20;100449.84;;;12.40;71.19
65546;BME280;52177;55.968;37.498;2023-05-19T01:37:54;100454.22;;;12.41;71.28
65546;BME280;52177;55.968;37.498;2023-05-19T01:38:25;100454.22;;;12.41;71.25
65546;BME280;52177;55.968;37.498;2023-05-19T01:38:58;100457.38;;;12.45;71.00
65546;BME280;52177;55.968;37.498;2023-05-19T01:39:29;100455.56;;;12.45;70.71
65546;BME280;52177;55.968;37.498;2023-05-19T01:40:00;100451.03;;;12.46;70.07
65546;BME280;52177;55.968;37.498;2023-05-19T01:40:31;100452.03;;;12.45;69.83
65546;BME280;52177;55.968;37.498;2023-05-19T01:41:02;100460.91;;;12.45;69.83
65546;BME280;52177;55.968;37.498;2023-05-19T01:41:35;100457.56;;;12.43;69.66
65546;BME280;52177;55.968;37.498;2023-05-19T01:42:07;100454.53;;;12.38;69.63
65546;BME280;52177;55.968;37.498;2023-05-19T01:42:39;100459.06;;;12.38;69.79
65546;BME280;52177;55.968;37.498;2023-05-19T01:43:13;100453.53;;;12.39;69.53
65546;BME280;52177;55.968;37.498;2023-05-19T01:43:44;100461.72;;;12.38;69.48
65546;BME280;52177;55.968;37.498;2023-05-19T01:44:15;100458.22;;;12.37;69.51
65546;BME280;52177;55.968;37.498;2023-05-19T01:44:46;100457.41;;;12.37;69.89
65546;BME280;52177;55.968;37.498;2023-05-19T01:45:17;100458.56;;;12.34;69.94
65546;BME280;52177;55.968;37.498;2023-05-19T01:45:49;100452.06;;;12.37;69.92
65546;BME280;52177;55.968;37.498;2023-05-19T01:46:20;100460.22;;;12.35;69.83
65546;BME280;52177;55.968;37.498;2023-05-19T01:46:50;100459.56;;;12.33;69.95
65546;BME280;52177;55.968;37.498;2023-05-19T01:47:21;100455.38;;;12.31;70.06
65546;BME280;52177;55.968;37.498;2023-05-19T01:47:55;100456.41;;;12.30;70.15
65546;BME280;52177;55.968;37.498;2023-05-19T01:48:27;100456.06;;;12.33;70.36
65546;BME280;52177;55.968;37.498;2023-05-19T01:48:58;100457.72;;;12.34;70.42
65546;BME280;52177;55.968;37.498;2023-05-19T01:49:29;100455.72;;;12.36;70.55
65546;BME280;52177;55.968;37.498;2023-05-19T01:49:59;100460.75;;;12.39;70.54
65546;BME280;52177;55.968;37.498;2023-05-19T01:50:30;100457.06;;;12.40;70.70
65546;BME280;52177;55.968;37.498;2023-05-19T01:51:01;100462.41;;;12.40;71.02
65546;BME280;52177;55.968;37.498;2023-05-19T01:51:31;100457.06;;;12.40;70.99
65546;BME280;52177;55.968;37.498;2023-05-19T01:52:01;100465.22;;;12.38;70.60
65546;BME280;52177;55.968;37.498;2023-05-19T01:52:32;100455.91;;;12.34;70.80
65546;BME280;52177;55.968;37.498;2023-05-19T01:53:03;100462.06;;;12.35;70.94
65546;BME280;52177;55.968;37.498;2023-05-19T01:53:33;100460.38;;;12.34;70.91
65546;BME280;52177;55.968;37.498;2023-05-19T01:54:03;100459.25;;;12.36;70.49
65546;BME280;52177;55.968;37.498;2023-05-19T01:54:34;100459.88;;;12.38;70.27
65546;BME280;52177;55.968;37.498;2023-05-19T01:55:05;100461.91;;;12.36;69.12
65546;BME280;52177;55.968;37.498;2023-05-19T01:55:46;100461.06;;;12.36;69.88
65546;BME280;52177;55.968;37.498;2023-05-19T01:56:22;100462.25;;;12.33;70.03
65546;BME280;52177;55.968;37.498;2023-05-19T01:58:00;100461.75;;;12.30;69.79
65546;BME280;52177;55.968;37.498;2023-05-19T01:58:17;100459.59;;;12.25;69.85
65546;BME280;52177;55.968;37.498;2023-05-19T01:58:59;100462.06;;;12.27;69.81
65546;BME280;52177;55.968;37.498;2023-05-19T01:59:40;100465.59;;;12.27;69.48
65546;BME280;52177;55.968;37.498;2023-05-19T02:01:52;100460.41;;;12.25;69.76
65546;BME280;52177;55.968;37.498;2023-05-19T02:03:28;100468.13;;;12.20;70.44
65546;BME280;52177;55.968;37.498;2023-05-19T02:05:07;100469.28;;;12.18;70.70
65546;BME280;52177;55.968;37.498;2023-05-19T02:07:38;100472.78;;;12.18;70.61
65546;BME280;52177;55.968;37.498;2023-05-19T02:08:26;100473.78;;;12.17;70.31
65546;BME280;52177;55.968;37.498;2023-05-19T02:09:25;100473.13;;;12.15;70.52
65546;BME280;52177;55.968;37.498;2023-05-19T02:10:10;100472.78;;;12.10;70.40
65546;BME280;52177;55.968;37.498;2023-05-19T02:10:50;100471.78;;;12.11;70.35
65546;BME280;52177;55.968;37.498;2023-05-19T02:12:00;100466.28;;;12.13;70.63
65546;BME280;52177;55.968;37.498;2023-05-19T02:12:36;100472.78;;;12.10;70.97
65546;BME280;52177;55.968;37.498;2023-05-19T02:13:10;100467.63;;;12.09;71.28
65546;BME280;52177;55.968;37.498;2023-05-19T02:13:43;100472.13;;;12.08;71.16
65546;BME280;52177;55.968;37.498;2023-05-19T02:14:18;100465.78;;;12.09;70.95
65546;BME280;52177;55.968;37.498;2023-05-19T02:14:57;100469.94;;;12.12;71.44
65546;BME280;52177;55.968;37.498;2023-05-19T02:15:33;100475.13;;;12.13;71.41
65546;BME280;52177;55.968;37.498;2023-05-19T02:16:08;100467.13;;;12.13;71.10
65546;BME280;52177;55.968;37.498;2023-05-19T02:16:45;100467.28;;;12.12;71.22
65546;BME280;52177;55.968;37.498;2023-05-19T02:17:17;100469.78;;;12.13;71.69
65546;BME280;52177;55.968;37.498;2023-05-19T02:17:50;100469.78;;;12.13;71.42
65546;BME280;52177;55.968;37.498;2023-05-19T02:18:23;100468.78;;;12.14;71.51
65546;BME280;52177;55.968;37.498;2023-05-19T02:18:54;100474.94;;;12.15;71.42
65546;BME280;52177;55.968;37.498;2023-05-19T02:19:28;100473.13;;;12.15;71.39
65546;BME280;52177;55.968;37.498;2023-05-19T02:19:58;100465.94;;;12.16;71.04
65546;BME280;52177;55.968;37.498;2023-05-19T02:20:30;100470.47;;;12.15;70.98
65546;BME280;52177;55.968;37.498;2023-05-19T02:21:01;100467.59;;;12.17;71.06
65546;BME280;52177;55.968;37.498;2023-05-19T02:21:31;100465.75;;;12.17;71.44
65546;BME280;52177;55.968;37.498;2023-05-19T02:22:02;100465.75;;;12.17;71.66
65546;BME280;52177;55.968;37.498;2023-05-19T02:22:32;100469.97;;;12.20;71.85
65546;BME280;52177;55.968;37.498;2023-05-19T02:23:03;100469.59;;;12.23;71.54
65546;BME280;52177;55.968;37.498;2023-05-19T02:23:33;100469.59;;;12.23;71.42
65546;BME280;52177;55.968;37.498;2023-05-19T02:24:04;100467.75;;;12.23;71.45
65546;BME280;52177;55.968;37.498;2023-05-19T02:24:34;100469.59;;;12.23;71.85
65546;BME280;52177;55.968;37.498;2023-05-19T02:25:07;100470.44;;;12.23;72.17
65546;BME280;52177;55.968;37.498;2023-05-19T02:25:38;100468.94;;;12.21;71.97
65546;BME280;52177;55.968;37.498;2023-05-19T02:26:08;100467.94;;;12.22;71.97
65546;BME280;52177;55.968;37.498;2023-05-19T02:26:39;100470.44;;;12.23;71.74
65546;BME280;52177;55.968;37.498;2023-05-19T02:27:09;100474.81;;;12.24;71.77
65546;BME280;52177;55.968;37.498;2023-05-19T02:27:40;100470.09;;;12.27;71.58
65546;BME280;52177;55.968;37.498;2023-05-19T02:28:10;100465.41;;;12.29;71.60
65546;BME280;52177;55.968;37.498;2023-05-19T02:28:41;100470.44;;;12.32;71.69
65546;BME280;52177;55.968;37.498;2023-05-19T02:29:11;100466.75;;;12.33;71.53
65546;BME280;52177;55.968;37.498;2023-05-19T02:29:42;100471.94;;;12.34;71.30
65546;BME280;52177;55.968;37.498;2023-05-19T02:30:12;100473.59;;;12.35;71.44
65546;BME280;52177;55.968;37.498;2023-05-19T02:30:42;100470.78;;;12.37;71.46
65546;BME280;52177;55.968;37.498;2023-05-19T02:31:13;100471.75;;;12.36;71.79
65546;BME280;52177;55.968;37.498;2023-05-19T02:31:43;100471.75;;;12.36;71.61
65546;BME280;52177;55.968;37.498;2023-05-19T02:32:14;100474.28;;;12.37;71.68
65546;BME280;52177;55.968;37.498;2023-05-19T02:32:44;100467.91;;;12.38;71.63
65546;BME280;52177;55.968;37.498;2023-05-19T02:33:15;100473.91;;;12.40;71.35
65546;BME280;52177;55.968;37.498;2023-05-19T02:33:48;100464.41;;;12.46;70.78
65546;BME280;52177;55.968;37.498;2023-05-19T02:34:18;100464.56;;;12.44;70.58
65546;BME280;52177;55.968;37.498;2023-05-19T02:34:48;100468.41;;;12.42;70.26
65546;BME280;52177;55.968;37.498;2023-05-19T02:35:19;100474.94;;;12.39;70.70
65546;BME280;52177;55.968;37.498;2023-05-19T02:35:50;100471.44;;;12.39;71.03
65546;BME280;52177;55.968;37.498;2023-05-19T02:36:20;100471.44;;;12.39;71.13
65546;BME280;52177;55.968;37.498;2023-05-19T02:36:50;100476.78;;;12.39;71.11
65546;BME280;52177;55.968;37.498;2023-05-19T02:37:21;100465.22;;;12.38;71.07
65546;BME280;52177;55.968;37.498;2023-05-19T02:37:54;100479.47;;;12.39;71.17
65546;BME280;52177;55.968;37.498;2023-05-19T02:38:25;100467.28;;;12.36;71.09
65546;BME280;52177;55.968;37.498;2023-05-19T02:38:55;100470.09;;;12.35;71.43
65546;BME280;52177;55.968;37.498;2023-05-19T02:39:25;100466.91;;;12.31;71.35
65546;BME280;52177;55.968;37.498;2023-05-19T02:39:58;100469.09;;;12.28;71.39
65546;BME280;52177;55.968;37.498;2023-05-19T02:40:28;100472.59;;;12.28;71.50
65546;BME280;52177;55.968;37.498;2023-05-19T02:40:59;100474.44;;;12.28;71.80
65546;BME280;52177;55.968;37.498;2023-05-19T02:41:29;100473.44;;;12.29;71.82
65546;BME280;52177;55.968;37.498;2023-05-19T02:42:00;100473.28;;;12.30;71.61
65546;BME280;52177;55.968;37.498;2023-05-19T02:42:30;100472.59;;;12.28;71.38
65546;BME280;52177;55.968;37.498;2023-05-19T02:43:01;100474.44;;;12.28;71.41
65546;BME280;52177;55.968;37.498;2023-05-19T02:43:31;100469.94;;;12.28;71.50
65546;BME280;52177;55.968;37.498;2023-05-19T02:44:01;100469.09;;;12.28;71.64
65546;BME280;52177;55.968;37.498;2023-05-19T02:44:32;100471.78;;;12.28;72.20
65546;BME280;52177;55.968;37.498;2023-05-19T02:45:02;100473.63;;;12.27;72.22
65546;BME280;52177;55.968;37.498;2023-05-19T02:45:33;100476.09;;;12.29;72.27
65546;BME280;52177;55.968;37.498;2023-05-19T02:46:03;100476.97;;;12.29;72.38
65546;BME280;52177;55.968;37.498;2023-05-19T02:46:34;100477.28;;;12.26;72.06
65546;BME280;52177;55.968;37.498;2023-05-19T02:47:04;100477.63;;;12.23;72.31
65546;BME280;52177;55.968;37.498;2023-05-19T02:47:34;100468.59;;;12.24;72.03
65546;BME280;52177;55.968;37.498;2023-05-19T02:48:05;100471.94;;;12.26;71.93
65546;BME280;52177;55.968;37.498;2023-05-19T02:48:35;100468.44;;;12.25;71.88
65546;BME280;52177;55.968;37.498;2023-05-19T02:49:06;100475.63;;;12.25;71.88
65546;BME280;52177;55.968;37.498;2023-05-19T02:49:36;100478.13;;;12.27;71.95
65546;BME280;52177;55.968;37.498;2023-05-19T02:50:07;100472.97;;;12.25;71.99
65546;BME280;52177;55.968;37.498;2023-05-19T02:50:37;100477.78;;;12.30;72.22
65546;BME280;52177;55.968;37.498;2023-05-19T02:51:08;100470.75;;;12.29;71.93
65546;BME280;52177;55.968;37.498;2023-05-19T02:51:38;100474.94;;;12.31;71.77
65546;BME280;52177;55.968;37.498;2023-05-19T02:52:09;100471.44;;;12.31;71.71
65546;BME280;52177;55.968;37.498;2023-05-19T02:52:41;100476.09;;;12.29;71.90
65546;BME280;52177;55.968;37.498;2023-05-19T02:53:11;100479.66;;;12.29;72.14
65546;BME280;52177;55.968;37.498;2023-05-19T02:53:41;100478.97;;;12.27;72.51
65546;BME280;52177;55.968;37.498;2023-05-19T02:54:12;100473.94;;;12.24;72.55
65546;BME280;52177;55.968;37.498;2023-05-19T02:54:42;100471.09;;;12.25;72.17
65546;BME280;52177;55.968;37.498;2023-05-19T02:55:12;100480.97;;;12.25;71.98
65546;BME280;52177;55.968;37.498;2023-05-19T02:55:46;100473.13;;;12.23;72.55
65546;BME280;52177;55.968;37.498;2023-05-19T02:56:16;100477.63;;;12.23;72.60
65546;BME280;52177;55.968;37.498;2023-05-19T02:56:46;100478.63;;;12.22;73.02
65546;BME280;52177;55.968;37.498;2023-05-19T02:57:17;100483.13;;;12.21;72.82
65546;BME280;52177;55.968;37.498;2023-05-19T02:57:47;100479.47;;;12.22;72.79
65546;BME280;52177;55.968;37.498;2023-05-19T02:58:17;100484.81;;;12.22;72.79
65546;BME280;52177;55.968;37.498;2023-05-19T02:58:49;100484.81;;;12.22;72.89
65546;BME280;52177;55.968;37.498;2023-05-19T02:59:21;100483.97;;;12.22;72.87
65546;BME280;52177;55.968;37.498;2023-05-19T02:59:52;100482.16;;;12.22;72.73
65546;BME280;52177;55.968;37.498;2023-05-19T03:00:22;100481.13;;;12.23;72.56
65546;BME280;52177;55.968;37.498;2023-05-19T03:00:54;100482.16;;;12.22;72.84
65546;BME280;52177;55.968;37.498;2023-05-19T03:01:25;100482.97;;;12.23;73.04
65546;BME280;52177;55.968;37.498;2023-05-19T03:01:59;100487.31;;;12.24;73.20
65546;BME280;52177;55.968;37.498;2023-05-19T03:02:30;100479.81;;;12.28;72.61